Pagina principale
METAR-TAF:

METAR-TAF

Aeroporti :

Aeroporto di Cagliari-Elmas

Cagliari, Italia

latitudine: 39-15N, longitudine: 009-04E, altezza: 4 m

Osservazione

Il bollettino è stato emesso 10 minuti fa, alle 18:50 UTC
Vento 5 kt da sud/sud-est
Temperature 12°C
Umidità 88%
Pressione 1030 hPa
Visibilità 10 km o più
nessuna nube inferiore a 1500 m e nessun cumulonembo

METAR: LIEE 161850Z 15005KT CAVOK 12/10 Q1030

Ora: 20:00 (19:00 UTC)

Previsione

Il bollettino è stato emesso 2 ore e 0 minuti fa, alle 17:00 UTC
Previsione valida dal 16 alle 18 UTC al 17 alle 18 UTC
Vento 10 kt da sud/sud-est
Visibilità 10 km o più
Nubi sparse ad un'altezza di 4000 ft
Evoluzione graduale
dal 16 alle 18 UTC al 16 alle 20 UTC
Vento 5 kt da direzioni variabili
Evoluzione graduale
dal 17 alle 08 UTC al 17 alle 10 UTC
Vento 10 kt da sud/sud-est

TAF: LIEE 161700Z 1618/1718 16010KT 9999 SCT040 BECMG 1618/1620 VRB05KT BECMG 1708/1710 16010KT

Osservazioni e previsioni meteorologiche di più di 4000 aeroporti (messaggi METAR e TAF).

Le stazioni disponibili sono rappresentate dai dischi gialli e rossi sulla carta.

Puntare il mouse per vedere il nome della stazione.

Clicca sopra per visualizzare le osservazioni e previsioni meteorologiche.

Per cambiare la mappa : fare clic sui pulsanti verdi con una croce nera per ingrandire, il pulsante verde con un trattino per diminuire, o sulla freccia verde per le mappe adiacenti.


METAR-TAF: